sensor_id;sensor_type;location;lat;lon;timestamp;pressure;altitude;pressure_sealevel;temperature;humidity
11099;BME280;12223;42.650;23.364;2023-02-22T00:01:39;94722.56;;;6.75;60.56
11099;BME280;12223;42.650;23.364;2023-02-22T00:04:15;94719.56;;;6.84;60.10
11099;BME280;12223;42.650;23.364;2023-02-22T00:06:47;94725.22;;;6.81;59.63
11099;BME280;12223;42.650;23.364;2023-02-22T00:09:14;94727.19;;;6.73;60.09
11099;BME280;12223;42.650;23.364;2023-02-22T00:11:45;94721.94;;;6.66;60.33
11099;BME280;12223;42.650;23.364;2023-02-22T00:14:12;94719.06;;;6.55;60.74
11099;BME280;12223;42.650;23.364;2023-02-22T00:16:39;94730.13;;;6.43;61.91
11099;BME280;12223;42.650;23.364;2023-02-22T00:19:05;94726.31;;;6.12;63.89
11099;BME280;12223;42.650;23.364;2023-02-22T00:21:33;94729.81;;;6.25;63.96
11099;BME280;12223;42.650;23.364;2023-02-22T00:24:01;94731.63;;;6.25;64.68
11099;BME280;12223;42.650;23.364;2023-02-22T00:26:41;94731.06;;;6.01;66.16
11099;BME280;12223;42.650;23.364;2023-02-22T00:29:08;94724.50;;;6.12;66.82
11099;BME280;12223;42.650;23.364;2023-02-22T00:31:36;94718.22;;;6.07;66.98
11099;BME280;12223;42.650;23.364;2023-02-22T00:34:03;94719.81;;;6.07;67.35
11099;BME280;12223;42.650;23.364;2023-02-22T00:36:30;94705.41;;;5.90;68.16
11099;BME280;12223;42.650;23.364;2023-02-22T00:38:57;94722.44;;;5.80;68.47
11099;BME280;12223;42.650;23.364;2023-02-22T00:41:25;94710.69;;;5.76;69.39
11099;BME280;12223;42.650;23.364;2023-02-22T00:43:52;94717.63;;;5.55;70.70
11099;BME280;12223;42.650;23.364;2023-02-22T00:46:18;94717.81;;;5.54;71.81
11099;BME280;12223;42.650;23.364;2023-02-22T00:48:45;94707.66;;;5.44;72.43
11099;BME280;12223;42.650;23.364;2023-02-22T00:51:12;94706.13;;;5.29;73.41
11099;BME280;12223;42.650;23.364;2023-02-22T00:53:38;94704.25;;;5.22;75.26
11099;BME280;12223;42.650;23.364;2023-02-22T00:56:06;94696.69;;;5.13;75.52
11099;BME280;12223;42.650;23.364;2023-02-22T00:58:34;94690.03;;;5.32;75.74
11099;BME280;12223;42.650;23.364;2023-02-22T01:01:00;94691.81;;;5.24;75.49
11099;BME280;12223;42.650;23.364;2023-02-22T01:03:27;94695.13;;;5.40;75.73
11099;BME280;12223;42.650;23.364;2023-02-22T01:05:56;94686.66;;;5.38;75.55
11099;BME280;12223;42.650;23.364;2023-02-22T01:08:23;94687.41;;;5.32;74.99
11099;BME280;12223;42.650;23.364;2023-02-22T01:10:50;94677.84;;;5.17;75.32
11099;BME280;12223;42.650;23.364;2023-02-22T01:13:17;94676.69;;;5.26;75.31
11099;BME280;12223;42.650;23.364;2023-02-22T01:15:45;94671.78;;;5.17;75.11
11099;BME280;12223;42.650;23.364;2023-02-22T01:18:12;94672.44;;;5.25;75.07
11099;BME280;12223;42.650;23.364;2023-02-22T01:20:41;94677.09;;;5.23;75.21
11099;BME280;12223;42.650;23.364;2023-02-22T01:23:13;94678.94;;;5.30;75.20
11099;BME280;12223;42.650;23.364;2023-02-22T01:25:41;94682.78;;;5.34;75.08
11099;BME280;12223;42.650;23.364;2023-02-22T01:28:09;94662.59;;;5.28;74.24
11099;BME280;12223;42.650;23.364;2023-02-22T01:30:38;94667.97;;;5.19;74.57
11099;BME280;12223;42.650;23.364;2023-02-22T01:33:06;94665.63;;;5.24;73.91
11099;BME280;12223;42.650;23.364;2023-02-22T01:35:35;94662.84;;;5.33;72.97
11099;BME280;12223;42.650;23.364;2023-02-22T01:38:03;94659.00;;;5.29;73.38
11099;BME280;12223;42.650;23.364;2023-02-22T01:40:32;94651.78;;;5.31;73.14
11099;BME280;12223;42.650;23.364;2023-02-22T01:43:02;94667.13;;;5.40;73.40
11099;BME280;12223;42.650;23.364;2023-02-22T01:45:42;94669.66;;;5.55;71.83
11099;BME280;12223;42.650;23.364;2023-02-22T01:48:14;94671.66;;;5.53;72.33
11099;BME280;12223;42.650;23.364;2023-02-22T01:50:47;94674.91;;;5.55;72.06
11099;BME280;12223;42.650;23.364;2023-02-22T01:53:19;94673.28;;;5.54;72.44
11099;BME280;12223;42.650;23.364;2023-02-22T01:55:50;94678.66;;;5.46;72.72
11099;BME280;12223;42.650;23.364;2023-02-22T01:58:18;94677.19;;;5.37;72.91
11099;BME280;12223;42.650;23.364;2023-02-22T02:00:46;94682.56;;;5.29;73.48
11099;BME280;12223;42.650;23.364;2023-02-22T02:03:18;94676.97;;;5.10;74.46
11099;BME280;12223;42.650;23.364;2023-02-22T02:05:47;94676.28;;;5.02;76.69
11099;BME280;12223;42.650;23.364;2023-02-22T02:08:23;94673.41;;;4.97;77.27
11099;BME280;12223;42.650;23.364;2023-02-22T02:10:54;94673.59;;;4.95;77.49
11099;BME280;12223;42.650;23.364;2023-02-22T02:13:20;94677.47;;;4.78;79.31
11099;BME280;12223;42.650;23.364;2023-02-22T02:15:47;94678.84;;;4.74;79.65
11099;BME280;12223;42.650;23.364;2023-02-22T02:18:18;94672.47;;;4.83;79.89
11099;BME280;12223;42.650;23.364;2023-02-22T02:20:58;94679.16;;;4.85;80.23
11099;BME280;12223;42.650;23.364;2023-02-22T02:23:43;94689.38;;;4.80;80.52
11099;BME280;12223;42.650;23.364;2023-02-22T02:26:29;94684.00;;;4.89;79.98
11099;BME280;12223;42.650;23.364;2023-02-22T02:29:31;94686.69;;;4.95;79.37
11099;BME280;12223;42.650;23.364;2023-02-22T02:32:21;94692.53;;;4.97;79.60
11099;BME280;12223;42.650;23.364;2023-02-22T02:34:57;94688.06;;;4.91;80.14
11099;BME280;12223;42.650;23.364;2023-02-22T02:37:33;94691.03;;;4.88;80.39
11099;BME280;12223;42.650;23.364;2023-02-22T02:40:10;94682.31;;;4.81;80.29
11099;BME280;12223;42.650;23.364;2023-02-22T02:42:41;94700.53;;;4.74;80.72
11099;BME280;12223;42.650;23.364;2023-02-22T02:45:13;94696.78;;;4.62;81.23
11099;BME280;12223;42.650;23.364;2023-02-22T02:47:45;94697.75;;;4.55;82.14
11099;BME280;12223;42.650;23.364;2023-02-22T02:50:19;94704.94;;;4.53;82.64
11099;BME280;12223;42.650;23.364;2023-02-22T02:52:50;94699.63;;;4.46;83.24
11099;BME280;12223;42.650;23.364;2023-02-22T02:55:19;94699.25;;;4.49;84.38
11099;BME280;12223;42.650;23.364;2023-02-22T02:57:46;94704.34;;;4.36;84.75
11099;BME280;12223;42.650;23.364;2023-02-22T03:00:15;94704.28;;;4.29;87.55
11099;BME280;12223;42.650;23.364;2023-02-22T03:03:04;94698.06;;;4.16;88.43
11099;BME280;12223;42.650;23.364;2023-02-22T03:05:49;94693.09;;;4.21;89.56
11099;BME280;12223;42.650;23.364;2023-02-22T03:08:25;94708.41;;;4.24;89.12
11099;BME280;12223;42.650;23.364;2023-02-22T03:11:00;94704.38;;;4.21;89.13
11099;BME280;12223;42.650;23.364;2023-02-22T03:13:36;94693.28;;;4.19;89.32
11099;BME280;12223;42.650;23.364;2023-02-22T03:16:11;94699.22;;;4.13;89.90
11099;BME280;12223;42.650;23.364;2023-02-22T03:18:48;94709.78;;;4.20;89.27
11099;BME280;12223;42.650;23.364;2023-02-22T03:21:22;94705.19;;;4.07;89.10
11099;BME280;12223;42.650;23.364;2023-02-22T03:23:58;94703.66;;;4.13;89.95
11099;BME280;12223;42.650;23.364;2023-02-22T03:26:30;94694.63;;;4.15;90.56
11099;BME280;12223;42.650;23.364;2023-02-22T03:29:00;94701.13;;;4.19;91.59
11099;BME280;12223;42.650;23.364;2023-02-22T03:31:33;94700.13;;;4.05;92.12
11099;BME280;12223;42.650;23.364;2023-02-22T03:34:08;94702.75;;;4.05;92.70
11099;BME280;12223;42.650;23.364;2023-02-22T03:36:41;94693.91;;;4.07;93.81
11099;BME280;12223;42.650;23.364;2023-02-22T03:39:13;94695.63;;;4.14;92.88
11099;BME280;12223;42.650;23.364;2023-02-22T03:41:43;94697.16;;;4.09;93.06
11099;BME280;12223;42.650;23.364;2023-02-22T03:44:20;94703.19;;;4.24;92.19
11099;BME280;12223;42.650;23.364;2023-02-22T03:46:49;94701.75;;;4.21;91.79
11099;BME280;12223;42.650;23.364;2023-02-22T03:49:29;94706.81;;;4.08;93.08
11099;BME280;12223;42.650;23.364;2023-02-22T03:52:00;94695.72;;;4.21;92.46
11099;BME280;12223;42.650;23.364;2023-02-22T03:54:27;94697.03;;;4.31;91.55
11099;BME280;12223;42.650;23.364;2023-02-22T03:56:56;94695.50;;;4.37;91.34
11099;BME280;12223;42.650;23.364;2023-02-22T03:59:24;94699.72;;;4.53;90.54
11099;BME280;12223;42.650;23.364;2023-02-22T04:01:52;94698.47;;;4.49;89.99
11099;BME280;12223;42.650;23.364;2023-02-22T04:04:21;94687.47;;;4.53;89.77
11099;BME280;12223;42.650;23.364;2023-02-22T04:06:48;94696.63;;;4.64;88.62
11099;BME280;12223;42.650;23.364;2023-02-22T04:09:15;94698.97;;;4.59;88.40
11099;BME280;12223;42.650;23.364;2023-02-22T04:11:43;94696.13;;;4.54;88.51
11099;BME280;12223;42.650;23.364;2023-02-22T04:14:10;94691.31;;;4.57;88.81
11099;BME280;12223;42.650;23.364;2023-02-22T04:16:36;94681.25;;;4.54;88.29
11099;BME280;12223;42.650;23.364;2023-02-22T04:19:04;94695.13;;;4.55;88.96
11099;BME280;12223;42.650;23.364;2023-02-22T04:21:32;94701.28;;;4.68;87.71
11099;BME280;12223;42.650;23.364;2023-02-22T04:23:59;94705.44;;;4.63;87.66
11099;BME280;12223;42.650;23.364;2023-02-22T04:26:26;94701.59;;;4.59;88.72
11099;BME280;12223;42.650;23.364;2023-02-22T04:28:52;94702.22;;;4.61;88.95
11099;BME280;12223;42.650;23.364;2023-02-22T04:31:19;94699.91;;;4.36;90.20
11099;BME280;12223;42.650;23.364;2023-02-22T04:33:46;94703.47;;;4.14;91.93
11099;BME280;12223;42.650;23.364;2023-02-22T04:36:13;94703.03;;;3.96;93.56
11099;BME280;12223;42.650;23.364;2023-02-22T04:38:42;94710.59;;;3.76;97.31
11099;BME280;12223;42.650;23.364;2023-02-22T04:41:09;94709.97;;;4.03;97.53
11099;BME280;12223;42.650;23.364;2023-02-22T04:43:36;94693.75;;;3.93;95.97
11099;BME280;12223;42.650;23.364;2023-02-22T04:46:03;94706.53;;;4.18;94.63
11099;BME280;12223;42.650;23.364;2023-02-22T04:48:30;94706.25;;;4.27;92.46
11099;BME280;12223;42.650;23.364;2023-02-22T04:50:57;94700.38;;;4.25;92.86
11099;BME280;12223;42.650;23.364;2023-02-22T04:53:24;94702.91;;;4.19;92.18
11099;BME280;12223;42.650;23.364;2023-02-22T04:55:52;94701.66;;;4.15;92.87
11099;BME280;12223;42.650;23.364;2023-02-22T04:58:19;94702.03;;;3.97;94.21
11099;BME280;12223;42.650;23.364;2023-02-22T05:00:45;94701.66;;;4.00;95.29
11099;BME280;12223;42.650;23.364;2023-02-22T05:03:12;94698.16;;;3.93;96.33
11099;BME280;12223;42.650;23.364;2023-02-22T05:05:39;94708.41;;;3.80;96.94
11099;BME280;12223;42.650;23.364;2023-02-22T05:08:05;94709.66;;;3.54;100.00
11099;BME280;12223;42.650;23.364;2023-02-22T05:10:32;94701.84;;;3.84;99.37
11099;BME280;12223;42.650;23.364;2023-02-22T05:13:00;94708.88;;;3.54;100.00
11099;BME280;12223;42.650;23.364;2023-02-22T05:15:27;94716.19;;;3.36;100.00
11099;BME280;12223;42.650;23.364;2023-02-22T05:17:54;94713.88;;;3.41;100.00
11099;BME280;12223;42.650;23.364;2023-02-22T05:20:23;94713.94;;;3.10;100.00
11099;BME280;12223;42.650;23.364;2023-02-22T05:22:52;94712.56;;;3.22;100.00
11099;BME280;12223;42.650;23.364;2023-02-22T05:25:20;94716.00;;;3.37;100.00
11099;BME280;12223;42.650;23.364;2023-02-22T05:27:50;94719.31;;;3.54;100.00
11099;BME280;12223;42.650;23.364;2023-02-22T05:30:20;94717.16;;;3.72;100.00
11099;BME280;12223;42.650;23.364;2023-02-22T05:32:49;94732.31;;;3.91;100.00
11099;BME280;12223;42.650;23.364;2023-02-22T05:35:16;94738.81;;;4.10;100.00
11099;BME280;12223;42.650;23.364;2023-02-22T05:37:43;94737.97;;;5.11;98.45
11099;BME280;12223;42.650;23.364;2023-02-22T05:40:10;94736.25;;;6.57;85.63
11099;BME280;12223;42.650;23.364;2023-02-22T05:42:38;94740.50;;;8.04;72.06
11099;BME280;12223;42.650;23.364;2023-02-22T05:45:06;94739.63;;;9.39;61.62
11099;BME280;12223;42.650;23.364;2023-02-22T05:47:34;94739.00;;;10.79;54.71
11099;BME280;12223;42.650;23.364;2023-02-22T05:50:01;94740.38;;;12.13;49.56
11099;BME280;12223;42.650;23.364;2023-02-22T05:52:28;94743.97;;;13.45;45.41
11099;BME280;12223;42.650;23.364;2023-02-22T05:54:55;94746.59;;;14.74;42.27
11099;BME280;12223;42.650;23.364;2023-02-22T05:57:21;94736.53;;;15.95;39.09
11099;BME280;12223;42.650;23.364;2023-02-22T05:59:48;94737.88;;;17.13;36.78
11099;BME280;12223;42.650;23.364;2023-02-22T06:02:15;94737.09;;;18.26;34.26
11099;BME280;12223;42.650;23.364;2023-02-22T06:04:44;94741.41;;;19.37;32.22
11099;BME280;12223;42.650;23.364;2023-02-22T06:07:12;94740.28;;;20.41;30.13
11099;BME280;12223;42.650;23.364;2023-02-22T06:09:43;94741.59;;;21.49;28.72
11099;BME280;12223;42.650;23.364;2023-02-22T06:12:10;94742.81;;;22.36;27.01
11099;BME280;12223;42.650;23.364;2023-02-22T06:14:37;94731.94;;;23.20;25.60
11099;BME280;12223;42.650;23.364;2023-02-22T06:17:05;94739.19;;;23.88;24.89
11099;BME280;12223;42.650;23.364;2023-02-22T06:19:32;94735.09;;;24.49;23.72
11099;BME280;12223;42.650;23.364;2023-02-22T06:22:00;94738.00;;;25.05;22.93
11099;BME280;12223;42.650;23.364;2023-02-22T06:24:27;94727.75;;;25.64;22.33
11099;BME280;12223;42.650;23.364;2023-02-22T06:26:54;94733.09;;;26.38;21.43
11099;BME280;12223;42.650;23.364;2023-02-22T06:29:21;94739.50;;;27.23;21.08
11099;BME280;12223;42.650;23.364;2023-02-22T06:31:49;94725.75;;;27.95;20.51
11099;BME280;12223;42.650;23.364;2023-02-22T06:34:16;94732.28;;;28.45;19.81
11099;BME280;12223;42.650;23.364;2023-02-22T06:36:43;94729.94;;;28.76;19.50
11099;BME280;12223;42.650;23.364;2023-02-22T06:39:13;94735.81;;;29.11;18.90
11099;BME280;12223;42.650;23.364;2023-02-22T06:41:41;94736.81;;;29.64;18.35
11099;BME280;12223;42.650;23.364;2023-02-22T06:44:08;94730.97;;;30.26;17.51
11099;BME280;12223;42.650;23.364;2023-02-22T06:46:35;94736.19;;;30.87;17.07
11099;BME280;12223;42.650;23.364;2023-02-22T06:49:02;94707.25;;;31.26;16.49
11099;BME280;12223;42.650;23.364;2023-02-22T06:51:29;94742.41;;;31.59;16.04
11099;BME280;12223;42.650;23.364;2023-02-22T06:53:56;94741.84;;;30.78;16.27
11099;BME280;12223;42.650;23.364;2023-02-22T06:56:25;94727.59;;;29.80;16.90
11099;BME280;12223;42.650;23.364;2023-02-22T06:58:51;94737.03;;;29.58;17.16
11099;BME280;12223;42.650;23.364;2023-02-22T07:01:18;94732.22;;;27.82;18.11
11099;BME280;12223;42.650;23.364;2023-02-22T07:03:47;94736.31;;;27.68;18.61
11099;BME280;12223;42.650;23.364;2023-02-22T07:06:14;94739.59;;;26.71;19.31
11099;BME280;12223;42.650;23.364;2023-02-22T07:08:41;94734.00;;;27.02;19.01
11099;BME280;12223;42.650;23.364;2023-02-22T07:11:08;94740.00;;;27.25;18.53
11099;BME280;12223;42.650;23.364;2023-02-22T07:13:36;94746.44;;;27.03;18.79
11099;BME280;12223;42.650;23.364;2023-02-22T07:16:04;94738.94;;;26.83;19.06
11099;BME280;12223;42.650;23.364;2023-02-22T07:18:31;94736.56;;;26.13;19.36
11099;BME280;12223;42.650;23.364;2023-02-22T07:20:57;94702.13;;;24.82;20.18
11099;BME280;12223;42.650;23.364;2023-02-22T07:23:24;94750.22;;;24.14;21.04
11099;BME280;12223;42.650;23.364;2023-02-22T07:25:51;94750.56;;;21.82;23.40
11099;BME280;12223;42.650;23.364;2023-02-22T07:28:18;94694.34;;;20.48;25.11
11099;BME280;12223;42.650;23.364;2023-02-22T07:30:46;94756.53;;;20.16;26.36
11099;BME280;12223;42.650;23.364;2023-02-22T07:33:13;94751.81;;;19.43;26.88
11099;BME280;12223;42.650;23.364;2023-02-22T07:35:44;94758.47;;;18.51;27.80
11099;BME280;12223;42.650;23.364;2023-02-22T07:38:15;94741.50;;;17.59;29.20
11099;BME280;12223;42.650;23.364;2023-02-22T07:40:45;94749.25;;;16.94;30.36
11099;BME280;12223;42.650;23.364;2023-02-22T07:43:14;94742.06;;;16.57;30.67
11099;BME280;12223;42.650;23.364;2023-02-22T07:45:42;94748.44;;;15.87;31.81
11099;BME280;12223;42.650;23.364;2023-02-22T07:48:11;94739.91;;;15.58;32.49
11099;BME280;12223;42.650;23.364;2023-02-22T07:50:38;94737.66;;;15.50;32.90
11099;BME280;12223;42.650;23.364;2023-02-22T07:53:07;94746.91;;;15.64;32.91
11099;BME280;12223;42.650;23.364;2023-02-22T07:55:39;94747.41;;;15.61;33.46
11099;BME280;12223;42.650;23.364;2023-02-22T07:58:11;94731.72;;;15.65;33.58
11099;BME280;12223;42.650;23.364;2023-02-22T08:00:40;94735.16;;;15.60;33.69
11099;BME280;12223;42.650;23.364;2023-02-22T08:03:12;94741.22;;;15.34;34.98
11099;BME280;12223;42.650;23.364;2023-02-22T08:05:42;94742.53;;;15.53;33.89
11099;BME280;12223;42.650;23.364;2023-02-22T08:08:10;94734.38;;;15.43;34.29
11099;BME280;12223;42.650;23.364;2023-02-22T08:10:39;94736.75;;;14.74;35.45
11099;BME280;12223;42.650;23.364;2023-02-22T08:13:06;94727.81;;;15.02;34.98
11099;BME280;12223;42.650;23.364;2023-02-22T08:15:34;94739.97;;;14.76;35.58
11099;BME280;12223;42.650;23.364;2023-02-22T08:18:02;94738.47;;;14.30;36.41
11099;BME280;12223;42.650;23.364;2023-02-22T08:20:31;94732.47;;;14.35;36.95
11099;BME280;12223;42.650;23.364;2023-02-22T08:22:57;94729.06;;;14.56;35.92
11099;BME280;12223;42.650;23.364;2023-02-22T08:25:26;94732.13;;;14.31;36.99
11099;BME280;12223;42.650;23.364;2023-02-22T08:27:56;94731.50;;;14.07;37.12
11099;BME280;12223;42.650;23.364;2023-02-22T08:30:26;94736.03;;;13.62;38.27
11099;BME280;12223;42.650;23.364;2023-02-22T08:32:53;94731.66;;;14.01;38.00
11099;BME280;12223;42.650;23.364;2023-02-22T08:35:20;94733.81;;;13.87;38.26
11099;BME280;12223;42.650;23.364;2023-02-22T08:37:51;94722.16;;;13.88;37.89
11099;BME280;12223;42.650;23.364;2023-02-22T08:40:20;94723.75;;;13.73;38.24
11099;BME280;12223;42.650;23.364;2023-02-22T08:42:48;94721.81;;;13.51;38.53
11099;BME280;12223;42.650;23.364;2023-02-22T08:45:15;94715.91;;;13.94;38.47
11099;BME280;12223;42.650;23.364;2023-02-22T08:47:42;94719.19;;;14.35;37.68
11099;BME280;12223;42.650;23.364;2023-02-22T08:50:15;94715.06;;;14.44;37.10
11099;BME280;12223;42.650;23.364;2023-02-22T08:52:42;94717.97;;;14.42;37.62
11099;BME280;12223;42.650;23.364;2023-02-22T08:55:10;94720.09;;;13.45;39.69
11099;BME280;12223;42.650;23.364;2023-02-22T08:57:37;94718.69;;;13.71;38.96
11099;BME280;12223;42.650;23.364;2023-02-22T09:00:05;94710.00;;;13.31;40.36
11099;BME280;12223;42.650;23.364;2023-02-22T09:02:32;94697.72;;;13.41;40.11
11099;BME280;12223;42.650;23.364;2023-02-22T09:04:59;94710.63;;;13.66;39.80
11099;BME280;12223;42.650;23.364;2023-02-22T09:07:26;94714.34;;;13.82;40.01
11099;BME280;12223;42.650;23.364;2023-02-22T09:09:53;94707.84;;;14.39;39.57
11099;BME280;12223;42.650;23.364;2023-02-22T09:12:21;94688.03;;;14.69;38.94
11099;BME280;12223;42.650;23.364;2023-02-22T09:14:48;94703.31;;;15.22;38.15
11099;BME280;12223;42.650;23.364;2023-02-22T09:17:15;94696.34;;;15.43;39.77
11099;BME280;12223;42.650;23.364;2023-02-22T09:19:41;94694.09;;;15.56;37.53
11099;BME280;12223;42.650;23.364;2023-02-22T09:22:10;94687.25;;;15.39;37.44
11099;BME280;12223;42.650;23.364;2023-02-22T09:24:37;94675.75;;;15.55;37.12
11099;BME280;12223;42.650;23.364;2023-02-22T09:27:03;94698.28;;;15.74;36.93
11099;BME280;12223;42.650;23.364;2023-02-22T09:29:33;94690.03;;;16.13;36.28
11099;BME280;12223;42.650;23.364;2023-02-22T09:31:59;94692.59;;;16.34;35.50
11099;BME280;12223;42.650;23.364;2023-02-22T09:34:28;94686.03;;;16.47;35.36
11099;BME280;12223;42.650;23.364;2023-02-22T09:36:55;94689.88;;;16.61;35.00
11099;BME280;12223;42.650;23.364;2023-02-22T09:39:23;94682.97;;;16.70;34.74
11099;BME280;12223;42.650;23.364;2023-02-22T09:41:55;94675.53;;;16.72;34.43
11099;BME280;12223;42.650;23.364;2023-02-22T09:44:31;94676.81;;;16.65;34.42
11099;BME280;12223;42.650;23.364;2023-02-22T09:47:03;94692.03;;;16.69;34.54
11099;BME280;12223;42.650;23.364;2023-02-22T09:49:36;94681.41;;;16.74;34.32
11099;BME280;12223;42.650;23.364;2023-02-22T09:52:07;94669.38;;;16.72;34.41
11099;BME280;12223;42.650;23.364;2023-02-22T09:54:40;94676.38;;;16.83;34.22
11099;BME280;12223;42.650;23.364;2023-02-22T09:57:13;94671.28;;;16.34;34.62
11099;BME280;12223;42.650;23.364;2023-02-22T09:59:45;94674.63;;;16.15;35.22
11099;BME280;12223;42.650;23.364;2023-02-22T10:02:22;94664.66;;;16.37;34.64
11099;BME280;12223;42.650;23.364;2023-02-22T10:04:58;94660.81;;;16.60;34.09
11099;BME280;12223;42.650;23.364;2023-02-22T10:07:30;94659.50;;;16.67;34.24
11099;BME280;12223;42.650;23.364;2023-02-22T10:09:58;94658.31;;;16.48;34.28
11099;BME280;12223;42.650;23.364;2023-02-22T10:12:36;94645.41;;;16.30;34.61
11099;BME280;12223;42.650;23.364;2023-02-22T10:15:35;94645.03;;;16.58;33.94
11099;BME280;12223;42.650;23.364;2023-02-22T10:18:44;94628.88;;;16.75;33.73
11099;BME280;12223;42.650;23.364;2023-02-22T10:21:31;94644.34;;;16.73;33.47
11099;BME280;12223;42.650;23.364;2023-02-22T10:24:08;94626.81;;;16.40;33.96
11099;BME280;12223;42.650;23.364;2023-02-22T10:26:41;94629.13;;;16.26;34.08
11099;BME280;12223;42.650;23.364;2023-02-22T10:29:18;94621.47;;;15.93;34.79
11099;BME280;12223;42.650;23.364;2023-02-22T10:31:51;94625.63;;;15.79;35.18
11099;BME280;12223;42.650;23.364;2023-02-22T10:34:23;94620.53;;;15.77;35.24
11099;BME280;12223;42.650;23.364;2023-02-22T10:36:55;94612.19;;;16.00;35.50
11099;BME280;12223;42.650;23.364;2023-02-22T10:39:29;94611.72;;;16.08;35.25
11099;BME280;12223;42.650;23.364;2023-02-22T10:41:59;94604.53;;;16.09;35.47
11099;BME280;12223;42.650;23.364;2023-02-22T10:44:31;94601.31;;;16.07;34.92
11099;BME280;12223;42.650;23.364;2023-02-22T10:46:59;94595.31;;;16.32;34.71
11099;BME280;12223;42.650;23.364;2023-02-22T10:49:33;94598.19;;;16.25;34.81
11099;BME280;12223;42.650;23.364;2023-02-22T10:52:03;94590.13;;;16.05;35.17
11099;BME280;12223;42.650;23.364;2023-02-22T10:54:33;94579.09;;;16.38;34.85
11099;BME280;12223;42.650;23.364;2023-02-22T10:57:02;94582.66;;;16.59;34.24
11099;BME280;12223;42.650;23.364;2023-02-22T10:59:31;94573.94;;;16.79;33.96
11099;BME280;12223;42.650;23.364;2023-02-22T11:01:59;94566.53;;;16.96;34.08
11099;BME280;12223;42.650;23.364;2023-02-22T11:04:44;94577.50;;;17.10;33.92
11099;BME280;12223;42.650;23.364;2023-02-22T11:07:19;94566.00;;;17.14;33.61
11099;BME280;12223;42.650;23.364;2023-02-22T11:09:49;94571.13;;;17.26;33.62
11099;BME280;12223;42.650;23.364;2023-02-22T11:12:18;94563.91;;;17.42;33.34
11099;BME280;12223;42.650;23.364;2023-02-22T11:14:46;94570.84;;;17.53;33.04
11099;BME280;12223;42.650;23.364;2023-02-22T11:17:18;94559.63;;;17.41;33.08
11099;BME280;12223;42.650;23.364;2023-02-22T11:19:49;94556.19;;;17.50;33.28
11099;BME280;12223;42.650;23.364;2023-02-22T11:22:21;94514.28;;;17.25;33.23
11099;BME280;12223;42.650;23.364;2023-02-22T11:24:53;94555.34;;;16.99;33.06
11099;BME280;12223;42.650;23.364;2023-02-22T11:27:32;94550.00;;;17.14;32.21
11099;BME280;12223;42.650;23.364;2023-02-22T11:30:23;94556.44;;;17.34;31.76
11099;BME280;12223;42.650;23.364;2023-02-22T11:32:53;94543.63;;;17.36;31.59
11099;BME280;12223;42.650;23.364;2023-02-22T11:35:37;94538.03;;;17.42;31.63
11099;BME280;12223;42.650;23.364;2023-02-22T11:38:15;94529.75;;;17.54;31.96
11099;BME280;12223;42.650;23.364;2023-02-22T11:40:43;94540.47;;;17.64;31.68
11099;BME280;12223;42.650;23.364;2023-02-22T11:43:17;94531.34;;;17.55;32.04
11099;BME280;12223;42.650;23.364;2023-02-22T11:46:01;94527.09;;;17.74;32.17
11099;BME280;12223;42.650;23.364;2023-02-22T11:48:32;94520.13;;;17.48;32.07
11099;BME280;12223;42.650;23.364;2023-02-22T11:51:15;94512.13;;;17.48;32.36
11099;BME280;12223;42.650;23.364;2023-02-22T11:54:03;94510.53;;;17.62;32.60
11099;BME280;12223;42.650;23.364;2023-02-22T11:56:35;94514.25;;;17.71;32.14
11099;BME280;12223;42.650;23.364;2023-02-22T11:59:11;94503.03;;;17.74;31.62
11099;BME280;12223;42.650;23.364;2023-02-22T12:01:47;94500.63;;;17.88;31.73
11099;BME280;12223;42.650;23.364;2023-02-22T12:04:36;94501.94;;;17.95;31.53
11099;BME280;12223;42.650;23.364;2023-02-22T12:07:22;94491.22;;;18.00;31.49
11099;BME280;12223;42.650;23.364;2023-02-22T12:09:55;94491.78;;;17.92;31.38
11099;BME280;12223;42.650;23.364;2023-02-22T12:12:30;94498.41;;;18.10;31.22
11099;BME280;12223;42.650;23.364;2023-02-22T12:15:06;94482.38;;;18.10;30.94
11099;BME280;12223;42.650;23.364;2023-02-22T12:17:45;94500.50;;;18.23;30.73
11099;BME280;12223;42.650;23.364;2023-02-22T12:20:17;94499.41;;;18.29;30.41
11099;BME280;12223;42.650;23.364;2023-02-22T12:23:00;94497.53;;;18.30;30.29
11099;BME280;12223;42.650;23.364;2023-02-22T12:25:32;94477.22;;;18.29;30.33
11099;BME280;12223;42.650;23.364;2023-02-22T12:28:02;94476.50;;;18.13;30.02
11099;BME280;12223;42.650;23.364;2023-02-22T12:30:38;94486.97;;;17.84;30.76
11099;BME280;12223;42.650;23.364;2023-02-22T12:33:13;94474.44;;;17.80;31.18
11099;BME280;12223;42.650;23.364;2023-02-22T12:35:43;94474.16;;;17.86;30.86
11099;BME280;12223;42.650;23.364;2023-02-22T12:38:19;94467.97;;;18.06;30.82
11099;BME280;12223;42.650;23.364;2023-02-22T12:40:53;94469.72;;;18.31;30.55
11099;BME280;12223;42.650;23.364;2023-02-22T12:43:26;94462.63;;;18.06;30.31
11099;BME280;12223;42.650;23.364;2023-02-22T12:46:01;94470.06;;;18.14;30.71
11099;BME280;12223;42.650;23.364;2023-02-22T12:48:39;94467.88;;;18.21;30.44
11099;BME280;12223;42.650;23.364;2023-02-22T12:51:19;94472.41;;;18.31;30.07
11099;BME280;12223;42.650;23.364;2023-02-22T12:53:55;94456.94;;;18.23;29.91
11099;BME280;12223;42.650;23.364;2023-02-22T12:56:30;94463.59;;;18.25;30.19
11099;BME280;12223;42.650;23.364;2023-02-22T12:59:03;94458.00;;;18.22;30.25
11099;BME280;12223;42.650;23.364;2023-02-22T13:01:36;94460.97;;;18.15;30.10
11099;BME280;12223;42.650;23.364;2023-02-22T13:04:05;94459.72;;;17.92;30.71
11099;BME280;12223;42.650;23.364;2023-02-22T13:06:51;94442.63;;;17.93;30.48
11099;BME280;12223;42.650;23.364;2023-02-22T13:09:44;94455.91;;;18.14;30.47
11099;BME280;12223;42.650;23.364;2023-02-22T13:12:18;94451.31;;;18.24;30.30
11099;BME280;12223;42.650;23.364;2023-02-22T13:14:54;94457.19;;;18.26;30.17